Pagrindinis puslapis
METAR-TAF:

METAR-TAF

Oro uostai :

Karakasas, Venesuela

platuma: 10-36N, ilguma: 066-59W, Aukštis: 43 m

Dabartinis oras

Ataskaita buvo paskelbta 7 minutes, ne 03:00 UTC
Vėjas 3 kt iš Pietų/Pietryčių
Temperatūra 24°C
Drėgmė 83%
Slėgis 1015 hPa
Matomumas 10 km arba daugiau

METAR: SVMI 180300Z 16003KT 9999 STC016 24/21 Q1015

Laikas: 23:07 (03:07 UTC)

Prognozė

Ataskaita buvo paskelbta 5 valandos ir 7 minutes, ne 22:00 UTC
Prognozė galioja nuo 18 metu 00 UTC su 19 metu 00 UTC
Vėjas 5 kt iš Rytų
Matomumas 10 km arba daugiau
Su prošvaistėmis ne aukštis 1300 ft
Tapsmas
nuo 18 metu 00 UTC su 18 metu 04 UTC
Vėjas 6 kt iš Rytų
Matomumas 10 km arba daugiau
Išsisklaidę debesys ne aukštis 1600 ft
Su prošvaistėmis ne aukštis 2000 ft
Išsisklaidę debesys ne aukštis 1600 ft
dulksna
Tapsmas
nuo 18 metu 00 UTC su 18 metu 04 UTC
Vėjas 6 kt iš Pietų
Matomumas 10 km arba daugiau
Su prošvaistėmis ne aukštis 1600 ft

TAF: SVMI 172200Z 1800/1900 09005KT 9999 BKN013 TX30/20Z TN22/08Z BECMG 1800/1804 09010KT 9000 -DZ SCT016 BKN020 SVMC 172200Z 1800/1900 09006KT 9999 SCT016 TX33/19Z TN23/09Z BECMG 1800/1804 18006KT 9999 BKN016

Orai ataskaitas ir orų prognozės (METAR, TAF).

turimą stotys yra geltonos ir raudonos taškus žemėlapyje.

Perkelti pele per norėdami pamatyti stoties vardą.

Tada spustelėkite, norėdami matyti oro stebėjimo ir prognozės.

Norėdami pakeisti žemėlapį: spustelėkite ant žalios mygtukų su juodo kryžiaus žemyn,; žalią mygtuką su brūkšneliu, jei norite nutolinti; arba žalių rodyklių gretimoms žemėlapius.


METAR-TAF: